sensor_id;sensor_type;location;lat;lon;timestamp;P1;durP1;ratioP1;P2;durP2;ratioP2
3331;SDS011;1678;50.94845400;5.30809100;2022-07-15T00:01:55;6.13;;;2.03;;
3331;SDS011;1678;50.94845400;5.30809100;2022-07-15T00:04:23;2.77;;;2.57;;
3331;SDS011;1678;50.94845400;5.30809100;2022-07-15T00:06:52;5.33;;;2.40;;
3331;SDS011;1678;50.94845400;5.30809100;2022-07-15T00:09:21;3.30;;;2.27;;
3331;SDS011;1678;50.94845400;5.30809100;2022-07-15T00:12:10;3.33;;;2.80;;
3331;SDS011;1678;50.94845400;5.30809100;2022-07-15T00:14:39;3.40;;;2.87;;
3331;SDS011;1678;50.94845400;5.30809100;2022-07-15T00:17:07;8.27;;;3.00;;
3331;SDS011;1678;50.94845400;5.30809100;2022-07-15T00:19:36;6.23;;;3.30;;
3331;SDS011;1678;50.94845400;5.30809100;2022-07-15T00:22:04;8.10;;;3.03;;
3331;SDS011;1678;50.94845400;5.30809100;2022-07-15T00:24:34;4.83;;;2.20;;
3331;SDS011;1678;50.94845400;5.30809100;2022-07-15T00:27:04;5.60;;;3.57;;
3331;SDS011;1678;50.94845400;5.30809100;2022-07-15T00:29:32;9.63;;;3.20;;
3331;SDS011;1678;50.94845400;5.30809100;2022-07-15T00:32:00;7.93;;;4.47;;
3331;SDS011;1678;50.94845400;5.30809100;2022-07-15T00:34:28;3.63;;;3.43;;
3331;SDS011;1678;50.94845400;5.30809100;2022-07-15T00:36:57;3.97;;;3.60;;
3331;SDS011;1678;50.94845400;5.30809100;2022-07-15T00:39:25;7.23;;;2.60;;
3331;SDS011;1678;50.94845400;5.30809100;2022-07-15T00:41:54;3.73;;;2.80;;
3331;SDS011;1678;50.94845400;5.30809100;2022-07-15T00:44:23;7.50;;;2.97;;
3331;SDS011;1678;50.94845400;5.30809100;2022-07-15T00:46:51;4.60;;;2.97;;
3331;SDS011;1678;50.94845400;5.30809100;2022-07-15T00:49:20;5.20;;;3.30;;
3331;SDS011;1678;50.94845400;5.30809100;2022-07-15T00:51:49;6.00;;;2.80;;
3331;SDS011;1678;50.94845400;5.30809100;2022-07-15T00:54:21;5.60;;;3.20;;
3331;SDS011;1678;50.94845400;5.30809100;2022-07-15T00:56:51;7.40;;;3.77;;
3331;SDS011;1678;50.94845400;5.30809100;2022-07-15T00:59:23;10.00;;;4.03;;
3331;SDS011;1678;50.94845400;5.30809100;2022-07-15T01:01:55;4.10;;;3.30;;
3331;SDS011;1678;50.94845400;5.30809100;2022-07-15T01:04:24;6.33;;;4.03;;
3331;SDS011;1678;50.94845400;5.30809100;2022-07-15T01:06:54;10.10;;;4.50;;
3331;SDS011;1678;50.94845400;5.30809100;2022-07-15T01:09:23;4.83;;;3.63;;
3331;SDS011;1678;50.94845400;5.30809100;2022-07-15T01:11:51;12.77;;;4.60;;
3331;SDS011;1678;50.94845400;5.30809100;2022-07-15T01:14:19;10.07;;;3.63;;
3331;SDS011;1678;50.94845400;5.30809100;2022-07-15T01:16:49;6.67;;;3.77;;
3331;SDS011;1678;50.94845400;5.30809100;2022-07-15T01:19:17;5.73;;;3.23;;
3331;SDS011;1678;50.94845400;5.30809100;2022-07-15T01:21:47;5.03;;;3.90;;
3331;SDS011;1678;50.94845400;5.30809100;2022-07-15T01:24:15;7.93;;;4.00;;
3331;SDS011;1678;50.94845400;5.30809100;2022-07-15T01:26:43;7.50;;;3.70;;
3331;SDS011;1678;50.94845400;5.30809100;2022-07-15T01:29:11;10.60;;;3.83;;
3331;SDS011;1678;50.94845400;5.30809100;2022-07-15T01:31:39;9.30;;;3.60;;
3331;SDS011;1678;50.94845400;5.30809100;2022-07-15T01:34:08;9.40;;;2.50;;
3331;SDS011;1678;50.94845400;5.30809100;2022-07-15T01:36:36;8.13;;;2.80;;
3331;SDS011;1678;50.94845400;5.30809100;2022-07-15T01:39:06;8.20;;;4.40;;
3331;SDS011;1678;50.94845400;5.30809100;2022-07-15T01:41:54;6.33;;;3.70;;
3331;SDS011;1678;50.94845400;5.30809100;2022-07-15T01:44:22;8.20;;;2.80;;
3331;SDS011;1678;50.94845400;5.30809100;2022-07-15T01:46:51;7.33;;;4.73;;
3331;SDS011;1678;50.94845400;5.30809100;2022-07-15T01:49:19;10.03;;;3.30;;
3331;SDS011;1678;50.94845400;5.30809100;2022-07-15T01:51:51;10.53;;;2.77;;
3331;SDS011;1678;50.94845400;5.30809100;2022-07-15T01:54:23;6.07;;;2.80;;
3331;SDS011;1678;50.94845400;5.30809100;2022-07-15T01:56:53;11.13;;;4.07;;
3331;SDS011;1678;50.94845400;5.30809100;2022-07-15T01:59:22;3.30;;;3.10;;
3331;SDS011;1678;50.94845400;5.30809100;2022-07-15T02:01:51;2.93;;;2.80;;
3331;SDS011;1678;50.94845400;5.30809100;2022-07-15T02:04:20;6.23;;;2.87;;
3331;SDS011;1678;50.94845400;5.30809100;2022-07-15T02:06:49;9.00;;;3.30;;
3331;SDS011;1678;50.94845400;5.30809100;2022-07-15T02:09:17;17.07;;;5.30;;
3331;SDS011;1678;50.94845400;5.30809100;2022-07-15T02:11:47;4.87;;;3.37;;
3331;SDS011;1678;50.94845400;5.30809100;2022-07-15T02:14:15;8.07;;;3.13;;
3331;SDS011;1678;50.94845400;5.30809100;2022-07-15T02:16:43;8.23;;;3.83;;
3331;SDS011;1678;50.94845400;5.30809100;2022-07-15T02:19:11;6.27;;;3.73;;
3331;SDS011;1678;50.94845400;5.30809100;2022-07-15T02:21:39;7.43;;;3.70;;
3331;SDS011;1678;50.94845400;5.30809100;2022-07-15T02:24:08;6.33;;;4.60;;
3331;SDS011;1678;50.94845400;5.30809100;2022-07-15T02:26:36;3.77;;;3.57;;
3331;SDS011;1678;50.94845400;5.30809100;2022-07-15T02:29:05;4.93;;;4.00;;
3331;SDS011;1678;50.94845400;5.30809100;2022-07-15T02:31:34;4.20;;;3.67;;
3331;SDS011;1678;50.94845400;5.30809100;2022-07-15T02:34:02;3.50;;;3.30;;
3331;SDS011;1678;50.94845400;5.30809100;2022-07-15T02:36:31;13.73;;;4.53;;
3331;SDS011;1678;50.94845400;5.30809100;2022-07-15T02:38:59;7.10;;;4.20;;
3331;SDS011;1678;50.94845400;5.30809100;2022-07-15T02:41:29;6.47;;;4.80;;
3331;SDS011;1678;50.94845400;5.30809100;2022-07-15T02:43:57;5.97;;;5.23;;
3331;SDS011;1678;50.94845400;5.30809100;2022-07-15T02:46:28;5.50;;;3.70;;
3331;SDS011;1678;50.94845400;5.30809100;2022-07-15T02:48:56;6.97;;;4.03;;
3331;SDS011;1678;50.94845400;5.30809100;2022-07-15T02:51:24;10.23;;;4.87;;
3331;SDS011;1678;50.94845400;5.30809100;2022-07-15T02:53:52;4.90;;;3.80;;
3331;SDS011;1678;50.94845400;5.30809100;2022-07-15T02:56:20;6.67;;;3.60;;
3331;SDS011;1678;50.94845400;5.30809100;2022-07-15T02:58:48;4.20;;;3.30;;
3331;SDS011;1678;50.94845400;5.30809100;2022-07-15T03:01:18;3.40;;;3.20;;
3331;SDS011;1678;50.94845400;5.30809100;2022-07-15T03:03:48;13.23;;;4.77;;
3331;SDS011;1678;50.94845400;5.30809100;2022-07-15T03:06:16;7.30;;;4.03;;
3331;SDS011;1678;50.94845400;5.30809100;2022-07-15T03:08:44;5.53;;;4.40;;
3331;SDS011;1678;50.94845400;5.30809100;2022-07-15T03:11:13;5.10;;;4.20;;
3331;SDS011;1678;50.94845400;5.30809100;2022-07-15T03:13:42;8.10;;;5.03;;
3331;SDS011;1678;50.94845400;5.30809100;2022-07-15T03:16:10;8.20;;;5.20;;
3331;SDS011;1678;50.94845400;5.30809100;2022-07-15T03:18:39;5.73;;;3.80;;
3331;SDS011;1678;50.94845400;5.30809100;2022-07-15T03:21:08;5.93;;;4.13;;
3331;SDS011;1678;50.94845400;5.30809100;2022-07-15T03:23:37;4.47;;;3.77;;
3331;SDS011;1678;50.94845400;5.30809100;2022-07-15T03:26:05;4.90;;;4.13;;
3331;SDS011;1678;50.94845400;5.30809100;2022-07-15T03:28:34;4.70;;;4.30;;
3331;SDS011;1678;50.94845400;5.30809100;2022-07-15T03:31:02;5.23;;;3.90;;
3331;SDS011;1678;50.94845400;5.30809100;2022-07-15T03:33:30;5.40;;;4.33;;
3331;SDS011;1678;50.94845400;5.30809100;2022-07-15T03:35:58;9.63;;;4.07;;
3331;SDS011;1678;50.94845400;5.30809100;2022-07-15T03:38:28;4.57;;;4.17;;
3331;SDS011;1678;50.94845400;5.30809100;2022-07-15T03:40:56;10.20;;;5.20;;
3331;SDS011;1678;50.94845400;5.30809100;2022-07-15T03:43:24;5.63;;;5.13;;
3331;SDS011;1678;50.94845400;5.30809100;2022-07-15T03:45:55;8.90;;;4.37;;
3331;SDS011;1678;50.94845400;5.30809100;2022-07-15T03:48:24;5.60;;;5.00;;
3331;SDS011;1678;50.94845400;5.30809100;2022-07-15T03:50:52;7.00;;;4.77;;
3331;SDS011;1678;50.94845400;5.30809100;2022-07-15T03:53:20;6.20;;;5.47;;
3331;SDS011;1678;50.94845400;5.30809100;2022-07-15T03:55:50;7.63;;;3.93;;
3331;SDS011;1678;50.94845400;5.30809100;2022-07-15T03:58:18;12.60;;;5.83;;
3331;SDS011;1678;50.94845400;5.30809100;2022-07-15T04:00:46;6.23;;;5.70;;
3331;SDS011;1678;50.94845400;5.30809100;2022-07-15T04:03:14;5.03;;;4.33;;
3331;SDS011;1678;50.94845400;5.30809100;2022-07-15T04:05:43;9.63;;;6.43;;
3331;SDS011;1678;50.94845400;5.30809100;2022-07-15T04:08:11;4.93;;;4.50;;
3331;SDS011;1678;50.94845400;5.30809100;2022-07-15T04:10:39;8.07;;;5.23;;
3331;SDS011;1678;50.94845400;5.30809100;2022-07-15T04:13:09;6.93;;;4.70;;
3331;SDS011;1678;50.94845400;5.30809100;2022-07-15T04:15:37;16.10;;;4.57;;
3331;SDS011;1678;50.94845400;5.30809100;2022-07-15T04:18:06;8.70;;;4.93;;
3331;SDS011;1678;50.94845400;5.30809100;2022-07-15T04:20:34;7.20;;;5.10;;
3331;SDS011;1678;50.94845400;5.30809100;2022-07-15T04:23:02;6.17;;;5.43;;
3331;SDS011;1678;50.94845400;5.30809100;2022-07-15T04:25:30;5.13;;;4.50;;
3331;SDS011;1678;50.94845400;5.30809100;2022-07-15T04:27:58;9.17;;;6.27;;
3331;SDS011;1678;50.94845400;5.30809100;2022-07-15T04:30:28;5.80;;;5.03;;
3331;SDS011;1678;50.94845400;5.30809100;2022-07-15T04:32:56;7.97;;;4.67;;
3331;SDS011;1678;50.94845400;5.30809100;2022-07-15T04:35:25;6.43;;;5.87;;
3331;SDS011;1678;50.94845400;5.30809100;2022-07-15T04:37:53;4.70;;;4.30;;
3331;SDS011;1678;50.94845400;5.30809100;2022-07-15T04:40:21;19.43;;;5.63;;
3331;SDS011;1678;50.94845400;5.30809100;2022-07-15T04:42:50;12.40;;;4.43;;
3331;SDS011;1678;50.94845400;5.30809100;2022-07-15T04:45:18;5.57;;;5.03;;
3331;SDS011;1678;50.94845400;5.30809100;2022-07-15T04:47:47;15.83;;;5.80;;
3331;SDS011;1678;50.94845400;5.30809100;2022-07-15T04:50:15;6.00;;;5.50;;
3331;SDS011;1678;50.94845400;5.30809100;2022-07-15T04:53:01;4.60;;;3.90;;
3331;SDS011;1678;50.94845400;5.30809100;2022-07-15T04:55:29;11.67;;;5.30;;
3331;SDS011;1678;50.94845400;5.30809100;2022-07-15T04:57:58;8.17;;;4.50;;
3331;SDS011;1678;50.94845400;5.30809100;2022-07-15T05:00:26;9.70;;;5.60;;
3331;SDS011;1678;50.94845400;5.30809100;2022-07-15T05:02:56;5.77;;;5.37;;
3331;SDS011;1678;50.94845400;5.30809100;2022-07-15T05:05:24;6.33;;;3.83;;
3331;SDS011;1678;50.94845400;5.30809100;2022-07-15T05:07:52;4.50;;;4.20;;
3331;SDS011;1678;50.94845400;5.30809100;2022-07-15T05:10:20;6.20;;;4.53;;
3331;SDS011;1678;50.94845400;5.30809100;2022-07-15T05:12:48;12.20;;;5.13;;
3331;SDS011;1678;50.94845400;5.30809100;2022-07-15T05:15:16;7.17;;;4.10;;
3331;SDS011;1678;50.94845400;5.30809100;2022-07-15T05:17:44;8.53;;;5.23;;
3331;SDS011;1678;50.94845400;5.30809100;2022-07-15T05:20:14;9.20;;;6.17;;
3331;SDS011;1678;50.94845400;5.30809100;2022-07-15T05:22:43;9.03;;;5.93;;
3331;SDS011;1678;50.94845400;5.30809100;2022-07-15T05:25:11;4.47;;;4.07;;
3331;SDS011;1678;50.94845400;5.30809100;2022-07-15T05:27:39;4.73;;;4.23;;
3331;SDS011;1678;50.94845400;5.30809100;2022-07-15T05:30:08;11.07;;;5.00;;
3331;SDS011;1678;50.94845400;5.30809100;2022-07-15T05:32:38;12.37;;;4.70;;
3331;SDS011;1678;50.94845400;5.30809100;2022-07-15T05:35:07;5.10;;;4.20;;
3331;SDS011;1678;50.94845400;5.30809100;2022-07-15T05:37:38;6.63;;;4.33;;
3331;SDS011;1678;50.94845400;5.30809100;2022-07-15T05:40:07;5.47;;;5.03;;
3331;SDS011;1678;50.94845400;5.30809100;2022-07-15T05:42:37;8.07;;;5.93;;
3331;SDS011;1678;50.94845400;5.30809100;2022-07-15T05:45:06;7.60;;;6.80;;
3331;SDS011;1678;50.94845400;5.30809100;2022-07-15T05:47:35;6.43;;;4.83;;
3331;SDS011;1678;50.94845400;5.30809100;2022-07-15T05:50:04;11.40;;;6.60;;
3331;SDS011;1678;50.94845400;5.30809100;2022-07-15T05:52:33;8.23;;;6.67;;
3331;SDS011;1678;50.94845400;5.30809100;2022-07-15T05:55:03;9.40;;;6.73;;
3331;SDS011;1678;50.94845400;5.30809100;2022-07-15T05:57:32;6.37;;;5.00;;
3331;SDS011;1678;50.94845400;5.30809100;2022-07-15T06:00:08;10.50;;;8.10;;
3331;SDS011;1678;50.94845400;5.30809100;2022-07-15T06:02:37;9.03;;;8.10;;
3331;SDS011;1678;50.94845400;5.30809100;2022-07-15T06:05:06;12.30;;;7.20;;
3331;SDS011;1678;50.94845400;5.30809100;2022-07-15T06:07:35;8.33;;;7.23;;
3331;SDS011;1678;50.94845400;5.30809100;2022-07-15T06:10:06;6.63;;;5.63;;
3331;SDS011;1678;50.94845400;5.30809100;2022-07-15T06:12:35;10.63;;;5.70;;
3331;SDS011;1678;50.94845400;5.30809100;2022-07-15T06:15:03;5.43;;;4.50;;
3331;SDS011;1678;50.94845400;5.30809100;2022-07-15T06:17:32;9.60;;;5.30;;
3331;SDS011;1678;50.94845400;5.30809100;2022-07-15T06:20:01;9.53;;;4.10;;
3331;SDS011;1678;50.94845400;5.30809100;2022-07-15T06:22:37;7.47;;;4.13;;
3331;SDS011;1678;50.94845400;5.30809100;2022-07-15T06:25:07;8.63;;;4.47;;
3331;SDS011;1678;50.94845400;5.30809100;2022-07-15T06:27:35;10.47;;;3.60;;
3331;SDS011;1678;50.94845400;5.30809100;2022-07-15T06:30:04;8.57;;;4.30;;
3331;SDS011;1678;50.94845400;5.30809100;2022-07-15T06:32:33;13.60;;;4.70;;
3331;SDS011;1678;50.94845400;5.30809100;2022-07-15T06:35:04;8.43;;;3.10;;
3331;SDS011;1678;50.94845400;5.30809100;2022-07-15T06:37:33;6.27;;;3.30;;
3331;SDS011;1678;50.94845400;5.30809100;2022-07-15T06:40:01;4.77;;;2.77;;
3331;SDS011;1678;50.94845400;5.30809100;2022-07-15T06:42:31;3.93;;;2.80;;
3331;SDS011;1678;50.94845400;5.30809100;2022-07-15T06:44:59;4.63;;;3.20;;
3331;SDS011;1678;50.94845400;5.30809100;2022-07-15T06:47:27;8.30;;;2.03;;
3331;SDS011;1678;50.94845400;5.30809100;2022-07-15T06:49:55;8.17;;;2.70;;
3331;SDS011;1678;50.94845400;5.30809100;2022-07-15T06:52:23;4.20;;;2.30;;
3331;SDS011;1678;50.94845400;5.30809100;2022-07-15T06:54:51;7.10;;;2.60;;
3331;SDS011;1678;50.94845400;5.30809100;2022-07-15T06:57:20;4.53;;;2.63;;
3331;SDS011;1678;50.94845400;5.30809100;2022-07-15T06:59:49;3.23;;;2.23;;
3331;SDS011;1678;50.94845400;5.30809100;2022-07-15T07:02:17;4.20;;;1.73;;
3331;SDS011;1678;50.94845400;5.30809100;2022-07-15T07:04:46;6.90;;;2.20;;
3331;SDS011;1678;50.94845400;5.30809100;2022-07-15T07:07:14;2.70;;;1.03;;
3331;SDS011;1678;50.94845400;5.30809100;2022-07-15T07:09:42;1.83;;;1.07;;
3331;SDS011;1678;50.94845400;5.30809100;2022-07-15T07:12:10;6.70;;;1.20;;
3331;SDS011;1678;50.94845400;5.30809100;2022-07-15T07:14:38;6.73;;;1.50;;
3331;SDS011;1678;50.94845400;5.30809100;2022-07-15T07:17:08;6.60;;;1.23;;
3331;SDS011;1678;50.94845400;5.30809100;2022-07-15T07:19:36;4.07;;;1.37;;
3331;SDS011;1678;50.94845400;5.30809100;2022-07-15T07:22:05;3.10;;;1.10;;
3331;SDS011;1678;50.94845400;5.30809100;2022-07-15T07:24:33;6.13;;;4.47;;
3331;SDS011;1678;50.94845400;5.30809100;2022-07-15T07:27:01;2.67;;;1.20;;
3331;SDS011;1678;50.94845400;5.30809100;2022-07-15T07:29:32;8.20;;;1.50;;
3331;SDS011;1678;50.94845400;5.30809100;2022-07-15T07:32:01;1.73;;;1.03;;
3331;SDS011;1678;50.94845400;5.30809100;2022-07-15T07:34:31;4.60;;;1.40;;
3331;SDS011;1678;50.94845400;5.30809100;2022-07-15T07:36:59;4.47;;;1.53;;
3331;SDS011;1678;50.94845400;5.30809100;2022-07-15T07:39:27;2.33;;;0.97;;
3331;SDS011;1678;50.94845400;5.30809100;2022-07-15T07:41:56;2.57;;;1.20;;
3331;SDS011;1678;50.94845400;5.30809100;2022-07-15T07:44:24;6.23;;;1.17;;
3331;SDS011;1678;50.94845400;5.30809100;2022-07-15T07:46:53;3.23;;;1.23;;
3331;SDS011;1678;50.94845400;5.30809100;2022-07-15T07:49:21;2.83;;;0.70;;
3331;SDS011;1678;50.94845400;5.30809100;2022-07-15T07:52:03;4.10;;;1.00;;
3331;SDS011;1678;50.94845400;5.30809100;2022-07-15T07:54:31;3.90;;;1.13;;
3331;SDS011;1678;50.94845400;5.30809100;2022-07-15T07:56:59;2.40;;;0.60;;
3331;SDS011;1678;50.94845400;5.30809100;2022-07-15T07:59:28;2.97;;;1.00;;
3331;SDS011;1678;50.94845400;5.30809100;2022-07-15T08:01:57;2.97;;;0.73;;
3331;SDS011;1678;50.94845400;5.30809100;2022-07-15T08:04:25;1.03;;;0.60;;
3331;SDS011;1678;50.94845400;5.30809100;2022-07-15T08:06:55;2.30;;;0.70;;
3331;SDS011;1678;50.94845400;5.30809100;2022-07-15T08:09:24;4.77;;;1.40;;
3331;SDS011;1678;50.94845400;5.30809100;2022-07-15T08:11:52;2.20;;;0.70;;
3331;SDS011;1678;50.94845400;5.30809100;2022-07-15T08:14:21;3.80;;;1.03;;
3331;SDS011;1678;50.94845400;5.30809100;2022-07-15T08:16:50;0.80;;;0.47;;
3331;SDS011;1678;50.94845400;5.30809100;2022-07-15T08:19:19;2.47;;;0.70;;
3331;SDS011;1678;50.94845400;5.30809100;2022-07-15T08:21:47;2.80;;;1.20;;
3331;SDS011;1678;50.94845400;5.30809100;2022-07-15T08:24:17;2.10;;;1.23;;
3331;SDS011;1678;50.94845400;5.30809100;2022-07-15T08:26:46;4.40;;;0.70;;
3331;SDS011;1678;50.94845400;5.30809100;2022-07-15T08:29:14;1.73;;;0.70;;
3331;SDS011;1678;50.94845400;5.30809100;2022-07-15T08:31:43;3.50;;;1.60;;
3331;SDS011;1678;50.94845400;5.30809100;2022-07-15T08:34:12;1.07;;;0.67;;
3331;SDS011;1678;50.94845400;5.30809100;2022-07-15T08:36:41;3.43;;;1.27;;
3331;SDS011;1678;50.94845400;5.30809100;2022-07-15T08:39:09;0.60;;;0.60;;
3331;SDS011;1678;50.94845400;5.30809100;2022-07-15T08:41:38;2.97;;;0.90;;
3331;SDS011;1678;50.94845400;5.30809100;2022-07-15T08:44:07;5.80;;;0.70;;
3331;SDS011;1678;50.94845400;5.30809100;2022-07-15T08:46:36;0.50;;;0.50;;
3331;SDS011;1678;50.94845400;5.30809100;2022-07-15T08:49:10;1.33;;;0.83;;
3331;SDS011;1678;50.94845400;5.30809100;2022-07-15T08:51:41;1.80;;;0.50;;
3331;SDS011;1678;50.94845400;5.30809100;2022-07-15T08:54:11;4.67;;;0.93;;
3331;SDS011;1678;50.94845400;5.30809100;2022-07-15T08:56:40;2.93;;;0.67;;
3331;SDS011;1678;50.94845400;5.30809100;2022-07-15T08:59:13;0.80;;;0.80;;
3331;SDS011;1678;50.94845400;5.30809100;2022-07-15T09:01:44;3.93;;;0.53;;
3331;SDS011;1678;50.94845400;5.30809100;2022-07-15T09:04:15;2.00;;;0.60;;
3331;SDS011;1678;50.94845400;5.30809100;2022-07-15T09:06:44;0.97;;;0.70;;
3331;SDS011;1678;50.94845400;5.30809100;2022-07-15T09:09:24;0.93;;;0.50;;
3331;SDS011;1678;50.94845400;5.30809100;2022-07-15T09:11:58;0.50;;;0.50;;
3331;SDS011;1678;50.94845400;5.30809100;2022-07-15T09:14:39;1.63;;;0.40;;
3331;SDS011;1678;50.94845400;5.30809100;2022-07-15T09:17:21;3.27;;;0.80;;
3331;SDS011;1678;50.94845400;5.30809100;2022-07-15T09:19:55;9.30;;;0.80;;
3331;SDS011;1678;50.94845400;5.30809100;2022-07-15T09:22:25;0.80;;;0.80;;
3331;SDS011;1678;50.94845400;5.30809100;2022-07-15T09:25:02;1.37;;;0.70;;
3331;SDS011;1678;50.94845400;5.30809100;2022-07-15T09:27:33;1.10;;;0.43;;
3331;SDS011;1678;50.94845400;5.30809100;2022-07-15T09:30:15;3.17;;;0.70;;
3331;SDS011;1678;50.94845400;5.30809100;2022-07-15T09:33:04;7.73;;;1.60;;
3331;SDS011;1678;50.94845400;5.30809100;2022-07-15T09:35:51;0.70;;;0.60;;
3331;SDS011;1678;50.94845400;5.30809100;2022-07-15T09:38:30;6.03;;;1.07;;
3331;SDS011;1678;50.94845400;5.30809100;2022-07-15T09:41:00;4.37;;;0.90;;
3331;SDS011;1678;50.94845400;5.30809100;2022-07-15T09:43:28;1.37;;;0.60;;
3331;SDS011;1678;50.94845400;5.30809100;2022-07-15T09:45:59;1.43;;;0.50;;
3331;SDS011;1678;50.94845400;5.30809100;2022-07-15T09:48:28;1.10;;;0.83;;
3331;SDS011;1678;50.94845400;5.30809100;2022-07-15T09:51:00;1.73;;;0.50;;
3331;SDS011;1678;50.94845400;5.30809100;2022-07-15T09:53:28;0.80;;;0.60;;
3331;SDS011;1678;50.94845400;5.30809100;2022-07-15T09:55:59;1.70;;;0.60;;
3331;SDS011;1678;50.94845400;5.30809100;2022-07-15T09:58:28;1.77;;;1.67;;
3331;SDS011;1678;50.94845400;5.30809100;2022-07-15T10:00:57;2.30;;;0.60;;
3331;SDS011;1678;50.94845400;5.30809100;2022-07-15T10:03:26;0.90;;;0.53;;
3331;SDS011;1678;50.94845400;5.30809100;2022-07-15T10:05:55;0.77;;;0.70;;
3331;SDS011;1678;50.94845400;5.30809100;2022-07-15T10:08:25;2.67;;;0.57;;
3331;SDS011;1678;50.94845400;5.30809100;2022-07-15T10:10:55;1.93;;;0.87;;
3331;SDS011;1678;50.94845400;5.30809100;2022-07-15T10:13:36;2.63;;;0.50;;
3331;SDS011;1678;50.94845400;5.30809100;2022-07-15T10:16:30;5.77;;;1.30;;
3331;SDS011;1678;50.94845400;5.30809100;2022-07-15T10:19:23;2.17;;;0.60;;
3331;SDS011;1678;50.94845400;5.30809100;2022-07-15T10:22:02;4.17;;;0.70;;
3331;SDS011;1678;50.94845400;5.30809100;2022-07-15T10:24:41;1.30;;;0.70;;
3331;SDS011;1678;50.94845400;5.30809100;2022-07-15T10:27:30;1.17;;;0.50;;
3331;SDS011;1678;50.94845400;5.30809100;2022-07-15T10:30:09;0.90;;;0.60;;
3331;SDS011;1678;50.94845400;5.30809100;2022-07-15T10:35:41;2.23;;;0.43;;
3331;SDS011;1678;50.94845400;5.30809100;2022-07-15T10:38:30;0.83;;;0.83;;
3331;SDS011;1678;50.94845400;5.30809100;2022-07-15T10:41:00;1.63;;;0.70;;
3331;SDS011;1678;50.94845400;5.30809100;2022-07-15T10:43:37;2.47;;;0.90;;
3331;SDS011;1678;50.94845400;5.30809100;2022-07-15T10:46:17;0.97;;;0.60;;
3331;SDS011;1678;50.94845400;5.30809100;2022-07-15T10:52:09;1.33;;;0.50;;
3331;SDS011;1678;50.94845400;5.30809100;2022-07-15T10:54:41;1.47;;;0.60;;
3331;SDS011;1678;50.94845400;5.30809100;2022-07-15T10:57:14;0.97;;;0.60;;
3331;SDS011;1678;50.94845400;5.30809100;2022-07-15T10:59:47;1.70;;;0.50;;
3331;SDS011;1678;50.94845400;5.30809100;2022-07-15T11:02:18;2.63;;;0.60;;
3331;SDS011;1678;50.94845400;5.30809100;2022-07-15T11:04:50;1.63;;;0.70;;
3331;SDS011;1678;50.94845400;5.30809100;2022-07-15T11:07:20;2.83;;;0.50;;
3331;SDS011;1678;50.94845400;5.30809100;2022-07-15T11:09:53;0.50;;;0.50;;
3331;SDS011;1678;50.94845400;5.30809100;2022-07-15T11:12:23;3.30;;;0.80;;
3331;SDS011;1678;50.94845400;5.30809100;2022-07-15T11:15:12;1.77;;;0.50;;
3331;SDS011;1678;50.94845400;5.30809100;2022-07-15T11:17:42;1.83;;;1.53;;
3331;SDS011;1678;50.94845400;5.30809100;2022-07-15T11:20:14;1.53;;;0.50;;
3331;SDS011;1678;50.94845400;5.30809100;2022-07-15T11:22:44;0.50;;;0.50;;
3331;SDS011;1678;50.94845400;5.30809100;2022-07-15T11:25:18;3.23;;;0.50;;
3331;SDS011;1678;50.94845400;5.30809100;2022-07-15T11:28:00;0.60;;;0.60;;
3331;SDS011;1678;50.94845400;5.30809100;2022-07-15T11:30:32;0.70;;;0.60;;
3331;SDS011;1678;50.94845400;5.30809100;2022-07-15T11:33:03;0.80;;;0.80;;
3331;SDS011;1678;50.94845400;5.30809100;2022-07-15T11:35:44;0.93;;;0.50;;
3331;SDS011;1678;50.94845400;5.30809100;2022-07-15T11:38:14;0.67;;;0.67;;
3331;SDS011;1678;50.94845400;5.30809100;2022-07-15T11:40:44;0.60;;;0.60;;
3331;SDS011;1678;50.94845400;5.30809100;2022-07-15T11:43:31;2.13;;;0.80;;
3331;SDS011;1678;50.94845400;5.30809100;2022-07-15T11:46:17;0.50;;;0.50;;
3331;SDS011;1678;50.94845400;5.30809100;2022-07-15T11:48:47;0.93;;;0.60;;
3331;SDS011;1678;50.94845400;5.30809100;2022-07-15T11:51:16;1.03;;;1.00;;
3331;SDS011;1678;50.94845400;5.30809100;2022-07-15T11:53:51;0.47;;;0.47;;
3331;SDS011;1678;50.94845400;5.30809100;2022-07-15T11:56:20;4.40;;;0.60;;
3331;SDS011;1678;50.94845400;5.30809100;2022-07-15T11:58:50;0.53;;;0.53;;
3331;SDS011;1678;50.94845400;5.30809100;2022-07-15T12:01:20;0.70;;;0.70;;
3331;SDS011;1678;50.94845400;5.30809100;2022-07-15T12:03:50;0.60;;;0.60;;
3331;SDS011;1678;50.94845400;5.30809100;2022-07-15T12:06:21;1.43;;;1.07;;
3331;SDS011;1678;50.94845400;5.30809100;2022-07-15T12:08:51;1.07;;;0.77;;
3331;SDS011;1678;50.94845400;5.30809100;2022-07-15T12:11:22;1.00;;;0.70;;
3331;SDS011;1678;50.94845400;5.30809100;2022-07-15T12:13:52;2.20;;;1.00;;
3331;SDS011;1678;50.94845400;5.30809100;2022-07-15T12:16:23;0.50;;;0.50;;
3331;SDS011;1678;50.94845400;5.30809100;2022-07-15T12:18:54;1.80;;;0.90;;
3331;SDS011;1678;50.94845400;5.30809100;2022-07-15T12:21:25;0.70;;;0.70;;
3331;SDS011;1678;50.94845400;5.30809100;2022-07-15T12:24:04;0.60;;;0.60;;
3331;SDS011;1678;50.94845400;5.30809100;2022-07-15T12:26:35;1.50;;;0.60;;
3331;SDS011;1678;50.94845400;5.30809100;2022-07-15T12:29:07;2.73;;;1.03;;
3331;SDS011;1678;50.94845400;5.30809100;2022-07-15T12:31:37;0.63;;;0.60;;
3331;SDS011;1678;50.94845400;5.30809100;2022-07-15T12:34:07;1.63;;;0.80;;
3331;SDS011;1678;50.94845400;5.30809100;2022-07-15T12:36:36;4.80;;;0.97;;
3331;SDS011;1678;50.94845400;5.30809100;2022-07-15T12:39:10;1.03;;;0.83;;
3331;SDS011;1678;50.94845400;5.30809100;2022-07-15T12:41:56;2.57;;;1.10;;
3331;SDS011;1678;50.94845400;5.30809100;2022-07-15T12:44:28;0.97;;;0.93;;
3331;SDS011;1678;50.94845400;5.30809100;2022-07-15T12:46:58;2.00;;;1.07;;
3331;SDS011;1678;50.94845400;5.30809100;2022-07-15T12:49:37;1.13;;;0.80;;
3331;SDS011;1678;50.94845400;5.30809100;2022-07-15T12:52:16;1.80;;;0.70;;
3331;SDS011;1678;50.94845400;5.30809100;2022-07-15T12:54:51;1.80;;;0.60;;
3331;SDS011;1678;50.94845400;5.30809100;2022-07-15T12:57:22;1.43;;;0.90;;
3331;SDS011;1678;50.94845400;5.30809100;2022-07-15T12:59:54;0.70;;;0.70;;
3331;SDS011;1678;50.94845400;5.30809100;2022-07-15T13:02:24;3.60;;;1.43;;
3331;SDS011;1678;50.94845400;5.30809100;2022-07-15T13:04:52;3.13;;;0.80;;
3331;SDS011;1678;50.94845400;5.30809100;2022-07-15T13:07:22;0.67;;;0.60;;
3331;SDS011;1678;50.94845400;5.30809100;2022-07-15T13:09:51;1.73;;;0.80;;
3331;SDS011;1678;50.94845400;5.30809100;2022-07-15T13:12:19;5.20;;;1.83;;
3331;SDS011;1678;50.94845400;5.30809100;2022-07-15T13:14:47;3.47;;;1.00;;
3331;SDS011;1678;50.94845400;5.30809100;2022-07-15T13:17:16;1.10;;;1.00;;
3331;SDS011;1678;50.94845400;5.30809100;2022-07-15T13:19:44;0.90;;;0.90;;
3331;SDS011;1678;50.94845400;5.30809100;2022-07-15T13:22:12;3.83;;;3.53;;
3331;SDS011;1678;50.94845400;5.30809100;2022-07-15T13:24:42;1.60;;;0.83;;
3331;SDS011;1678;50.94845400;5.30809100;2022-07-15T13:27:10;1.67;;;0.60;;
3331;SDS011;1678;50.94845400;5.30809100;2022-07-15T13:29:38;0.90;;;0.90;;
3331;SDS011;1678;50.94845400;5.30809100;2022-07-15T13:32:06;2.77;;;1.00;;
3331;SDS011;1678;50.94845400;5.30809100;2022-07-15T13:34:34;1.67;;;0.60;;